WetterOnline ( https://www.wetteronline.at )

Wetter aktuell Helgoland

Aktuelles Wetter: Helgoland/Düne (8m)

6-stündlich | Neueste Meldungen
Ortszeit Temperatur Wetter
Fr, 07.10. 14:00 15.7° C wolkig
Fr, 07.10. 8:00 12.9° C wolkig
Fr, 07.10. 2:00 13.9° C leicht bewölkt
Do, 06.10. 20:00 15.0° C fast wolkenlos
Do, 06.10. 14:00 15.7° C leicht bewölkt
Do, 06.10. 8:00 14.8° C leicht bewölkt
Do, 06.10. 2:00 15.5° C leicht bewölkt
Mi, 05.10. 20:00 16.8° C bedeckt
Ortszeit Temperatur Wetter
Fr, 07.10. 17:30 16.0° C wolkig
Fr, 07.10. 17:20 16.0° C wolkig
Fr, 07.10. 17:10 16.0° C bedeckt
Fr, 07.10. 17:00 16.1° C bedeckt
Fr, 07.10. 16:50 16.1° C bedeckt
Fr, 07.10. 16:40 16.1° C bedeckt
Fr, 07.10. 16:30 16.0° C bedeckt
Fr, 07.10. 16:00 16.1° C leicht bewölkt
Fr, 07.10. 15:30 16.0° C leicht bewölkt
Fr, 07.10. 15:00 16.0° C wolkig
Fr, 07.10. 14:30 15.8° C leicht bewölkt
Ortszeit Relative Feuchte Sichtweite
Fr, 07.10. 14:00 74% 22 km
Fr, 07.10. 8:00 85% 16 km
Fr, 07.10. 2:00 78% 20 km
Do, 06.10. 20:00 70% 15 km
Do, 06.10. 14:00 64% 19 km
Do, 06.10. 8:00 70% 10 km
Do, 06.10. 2:00 73% 14 km
Mi, 05.10. 20:00 73% 17 km
Ortszeit Relative Feuchte Sichtweite
Fr, 07.10. 17:30 77% 21 km
Fr, 07.10. 17:20 77% -
Fr, 07.10. 17:10 76% -
Fr, 07.10. 17:00 75% 23 km
Fr, 07.10. 16:50 75% -
Fr, 07.10. 16:40 75% -
Fr, 07.10. 16:30 75% 23 km
Fr, 07.10. 16:00 74% 24 km
Fr, 07.10. 15:30 75% 22 km
Fr, 07.10. 15:00 76% 20 km
Fr, 07.10. 14:30 75% 16 km
Ortszeit Niederschlagsmenge Niederschlagsart
Fr, 07.10. 14:00 0.0 l/m2 in 6 Std. -
Fr, 07.10. 8:00 0.0 l/m2 in 12 Std. -
Fr, 07.10. 2:00 0.0 l/m2 in 6 Std. -
Do, 06.10. 20:00 0.0 l/m2 in 12 Std. -
Do, 06.10. 14:00 0.0 l/m2 in 6 Std. -
Do, 06.10. 8:00 0.9 l/m2 in 12 Std. Regen
Do, 06.10. 2:00 0.1 l/m2 in 6 Std. Regen
Mi, 05.10. 20:00 0.0 l/m2 in 12 Std. -
Ortszeit Niederschlagsmenge Niederschlagsart
Fr, 07.10. 17:30 0.0 l/m2 in 1 Std. -
Fr, 07.10. 17:20 keine Meldung -
Fr, 07.10. 17:10 keine Meldung -
Fr, 07.10. 17:00 0.0 l/m2 in 1 Std. -
Fr, 07.10. 16:50 keine Meldung -
Fr, 07.10. 16:40 keine Meldung -
Fr, 07.10. 16:30 0.0 l/m2 in 1 Std. -
Fr, 07.10. 16:00 0.0 l/m2 in 1 Std. -
Fr, 07.10. 15:30 0.0 l/m2 in 1 Std. -
Fr, 07.10. 15:00 0.0 l/m2 in 1 Std. -
Fr, 07.10. 14:30 0.0 l/m2 in 1 Std. -
Ortszeit Stärke Spitze Richtung
km/h Bft. km/h Grad Sektor
Fr, 07.10. 14:00 36 5 54 220° SW
Fr, 07.10. 8:00 35 5 50 220° SW
Fr, 07.10. 2:00 31 5 57 220° SW
Do, 06.10. 20:00 39 6 63 240° SW
Do, 06.10. 14:00 41 6 59 250° W
Do, 06.10. 8:00 40 6 72 270° W
Do, 06.10. 2:00 40 6 76 250° W
Mi, 05.10. 20:00 44 6 67 210° SW
Ortszeit Stärke Spitze Richtung
km/h Bft. km/h Grad Sektor
Fr, 07.10. 17:30 33 5 48 220° SW
Fr, 07.10. 17:20 33 5 - 220° SW
Fr, 07.10. 17:10 33 5 - 220° SW
Fr, 07.10. 17:00 33 5 52 220° SW
Fr, 07.10. 16:50 33 5 - 220° SW
Fr, 07.10. 16:40 33 5 - 220° SW
Fr, 07.10. 16:30 32 5 50 220° SW
Fr, 07.10. 16:00 37 5 56 220° SW
Fr, 07.10. 15:30 36 5 58 220° SW
Fr, 07.10. 15:00 37 5 56 220° SW
Fr, 07.10. 14:30 36 5 58 220° SW
Ortszeit Untergrenze Bedeckung Gattung
total tief tief mittel hoch
Fr, 07.10. 14:00 1380 m 6/8 4/8 - - -
Fr, 07.10. 8:00 7800 m 8/8 0/8 - - -
Fr, 07.10. 2:00 10500 m 3/8 0/8 - - -
Do, 06.10. 20:00 810 m 1/8 1/8 - - -
Do, 06.10. 14:00 960 m 4/8 4/8 - - -
Do, 06.10. 8:00 930 m 3/8 3/8 - - -
Do, 06.10. 2:00 750 m 3/8 3/8 - - -
Mi, 05.10. 20:00 960 m 8/8 8/8 - - -
Ortszeit Bedeckungsgrad in Achtel und Wolkenuntergrenze
Fr, 07.10. 17:30 3(870m) 8(6900m)
Fr, 07.10. 17:20 3(870m) 8(6900m)
Fr, 07.10. 17:10 8
Fr, 07.10. 17:00 8(6900m)
Fr, 07.10. 16:50 8(6900m)
Fr, 07.10. 16:40 8
Fr, 07.10. 16:30 8(6900m)
Fr, 07.10. 16:00 7(7200m) 7(9000m) 7(10500m)
Fr, 07.10. 15:30 6(7500m) 6(10500m)
Fr, 07.10. 15:00 2(600m) 6(7800m)
Fr, 07.10. 14:30 1(600m) 4(9000m) 5(9000m)
Ortszeit Luftdruck NN (hPa) Tendenz (hPa in 3 Std.)
Fr, 07.10. 14:00 1018 - 1,6
Fr, 07.10. 8:00 1020 - 1,6
Fr, 07.10. 2:00 1024 - 1,6
Do, 06.10. 20:00 1026 + 0,5
Do, 06.10. 14:00 1025 + 1,9
Do, 06.10. 8:00 1020 + 3,5
Do, 06.10. 2:00 1013 + 2,6
Mi, 05.10. 20:00 1009 - 0,4
Ortszeit Luftdruck NN (hPa) Tendenz (hPa in 3 Std.)
Fr, 07.10. 17:30 1016 - 1,9
Fr, 07.10. 17:20 1016 keine Meldung
Fr, 07.10. 17:10 1016 keine Meldung
Fr, 07.10. 17:00 1016 - 2,1
Fr, 07.10. 16:50 1016 keine Meldung
Fr, 07.10. 16:40 1016 keine Meldung
Fr, 07.10. 16:30 1016 - 2,0
Fr, 07.10. 16:00 1017 - 1,8
Fr, 07.10. 15:30 1017 - 1,8
Fr, 07.10. 15:00 1017 - 1,5
Fr, 07.10. 14:30 1018 - 1,6
Ortszeit Schneehöhe (cm)
Fr, 07.10. 14:00 0
Fr, 07.10. 8:00 0
Fr, 07.10. 2:00 0
Do, 06.10. 20:00 0
Do, 06.10. 14:00 0
Do, 06.10. 8:00 0
Do, 06.10. 2:00 0
Mi, 05.10. 20:00 0
Ortszeit Schneehöhe (cm)
Fr, 07.10. 17:30 0
Fr, 07.10. 17:20 0
Fr, 07.10. 17:10 0
Fr, 07.10. 17:00 0
Fr, 07.10. 16:50 0
Fr, 07.10. 16:40 0
Fr, 07.10. 16:30 0
Fr, 07.10. 16:00 0
Fr, 07.10. 15:30 0
Fr, 07.10. 15:00 0
Fr, 07.10. 14:30 0
Link zu dieser Seite / Seite empfehlen

Das Wetter in ...